sensor_id;sensor_type;location;lat;lon;timestamp;temperature;humidity
61386;DHT22;47256;18.904;-99.054;2023-07-31T00:01:21;26.70;99.90
61386;DHT22;47256;18.904;-99.054;2023-07-31T00:03:48;26.70;99.90
61386;DHT22;47256;18.904;-99.054;2023-07-31T00:06:16;26.80;99.90
61386;DHT22;47256;18.904;-99.054;2023-07-31T00:08:43;26.80;99.90
61386;DHT22;47256;18.904;-99.054;2023-07-31T00:11:10;26.70;99.90
61386;DHT22;47256;18.904;-99.054;2023-07-31T00:13:38;26.70;99.90
61386;DHT22;47256;18.904;-99.054;2023-07-31T00:16:05;26.70;99.90
61386;DHT22;47256;18.904;-99.054;2023-07-31T00:18:32;26.70;99.90
61386;DHT22;47256;18.904;-99.054;2023-07-31T00:20:59;26.80;99.90
61386;DHT22;47256;18.904;-99.054;2023-07-31T00:23:27;26.70;99.90
61386;DHT22;47256;18.904;-99.054;2023-07-31T00:25:54;26.80;99.90
61386;DHT22;47256;18.904;-99.054;2023-07-31T00:28:21;26.70;99.90
61386;DHT22;47256;18.904;-99.054;2023-07-31T00:30:48;26.70;99.90
61386;DHT22;47256;18.904;-99.054;2023-07-31T00:33:15;26.70;99.90
61386;DHT22;47256;18.904;-99.054;2023-07-31T00:35:42;26.60;99.90
61386;DHT22;47256;18.904;-99.054;2023-07-31T00:38:10;26.60;99.90
61386;DHT22;47256;18.904;-99.054;2023-07-31T00:40:37;26.60;99.90
61386;DHT22;47256;18.904;-99.054;2023-07-31T00:43:04;26.60;99.90
61386;DHT22;47256;18.904;-99.054;2023-07-31T00:45:32;26.50;99.90
61386;DHT22;47256;18.904;-99.054;2023-07-31T00:48:01;26.50;99.90
61386;DHT22;47256;18.904;-99.054;2023-07-31T00:50:29;26.50;99.90
61386;DHT22;47256;18.904;-99.054;2023-07-31T00:52:58;26.50;99.90
61386;DHT22;47256;18.904;-99.054;2023-07-31T00:55:26;26.50;99.90
61386;DHT22;47256;18.904;-99.054;2023-07-31T00:57:53;26.50;99.90
61386;DHT22;47256;18.904;-99.054;2023-07-31T01:00:22;26.40;99.90
61386;DHT22;47256;18.904;-99.054;2023-07-31T01:02:51;26.40;99.90
61386;DHT22;47256;18.904;-99.054;2023-07-31T01:05:25;26.30;99.90
61386;DHT22;47256;18.904;-99.054;2023-07-31T01:08:04;26.30;99.90
61386;DHT22;47256;18.904;-99.054;2023-07-31T01:10:50;26.30;99.90
61386;DHT22;47256;18.904;-99.054;2023-07-31T01:13:19;26.20;99.90
61386;DHT22;47256;18.904;-99.054;2023-07-31T01:15:47;26.20;99.90
61386;DHT22;47256;18.904;-99.054;2023-07-31T01:18:15;26.20;99.90
61386;DHT22;47256;18.904;-99.054;2023-07-31T01:20:47;26.20;99.90
61386;DHT22;47256;18.904;-99.054;2023-07-31T01:26:18;26.10;99.90
61386;DHT22;47256;18.904;-99.054;2023-07-31T01:29:17;26.10;99.90
61386;DHT22;47256;18.904;-99.054;2023-07-31T01:31:49;26.10;99.90
61386;DHT22;47256;18.904;-99.054;2023-07-31T01:34:18;26.00;99.90
61386;DHT22;47256;18.904;-99.054;2023-07-31T01:36:46;26.00;99.90
61386;DHT22;47256;18.904;-99.054;2023-07-31T01:39:13;26.00;99.90
61386;DHT22;47256;18.904;-99.054;2023-07-31T01:41:42;26.00;99.90
61386;DHT22;47256;18.904;-99.054;2023-07-31T01:44:09;26.00;99.90
61386;DHT22;47256;18.904;-99.054;2023-07-31T01:46:36;26.00;99.90
61386;DHT22;47256;18.904;-99.054;2023-07-31T01:49:05;26.00;99.90
61386;DHT22;47256;18.904;-99.054;2023-07-31T01:51:33;25.90;99.90
61386;DHT22;47256;18.904;-99.054;2023-07-31T01:54:03;25.90;99.90
61386;DHT22;47256;18.904;-99.054;2023-07-31T01:56:31;25.90;99.90
61386;DHT22;47256;18.904;-99.054;2023-07-31T01:58:58;25.90;99.90
61386;DHT22;47256;18.904;-99.054;2023-07-31T02:01:25;25.90;99.90
61386;DHT22;47256;18.904;-99.054;2023-07-31T02:03:52;25.90;99.90
61386;DHT22;47256;18.904;-99.054;2023-07-31T02:06:22;25.90;99.90
61386;DHT22;47256;18.904;-99.054;2023-07-31T02:08:50;25.80;99.90
61386;DHT22;47256;18.904;-99.054;2023-07-31T02:11:17;25.80;99.90
61386;DHT22;47256;18.904;-99.054;2023-07-31T02:13:44;25.80;99.90
61386;DHT22;47256;18.904;-99.054;2023-07-31T02:16:11;25.80;99.90
61386;DHT22;47256;18.904;-99.054;2023-07-31T02:18:39;25.70;99.90
61386;DHT22;47256;18.904;-99.054;2023-07-31T02:21:06;25.70;99.90
61386;DHT22;47256;18.904;-99.054;2023-07-31T02:23:33;25.60;99.90
61386;DHT22;47256;18.904;-99.054;2023-07-31T02:26:00;25.60;99.90
61386;DHT22;47256;18.904;-99.054;2023-07-31T02:28:29;25.60;99.90
61386;DHT22;47256;18.904;-99.054;2023-07-31T02:30:57;25.50;99.90
61386;DHT22;47256;18.904;-99.054;2023-07-31T02:33:24;25.30;99.90
61386;DHT22;47256;18.904;-99.054;2023-07-31T02:35:51;25.20;99.90
61386;DHT22;47256;18.904;-99.054;2023-07-31T02:38:18;25.10;99.90
61386;DHT22;47256;18.904;-99.054;2023-07-31T02:40:45;24.90;99.90
61386;DHT22;47256;18.904;-99.054;2023-07-31T02:43:13;24.90;99.90
61386;DHT22;47256;18.904;-99.054;2023-07-31T02:45:40;24.90;99.90
61386;DHT22;47256;18.904;-99.054;2023-07-31T02:48:07;24.80;99.90
61386;DHT22;47256;18.904;-99.054;2023-07-31T02:50:35;24.80;99.90
61386;DHT22;47256;18.904;-99.054;2023-07-31T02:53:02;24.80;99.90
61386;DHT22;47256;18.904;-99.054;2023-07-31T02:55:29;24.70;99.90
61386;DHT22;47256;18.904;-99.054;2023-07-31T02:57:57;24.60;99.90
61386;DHT22;47256;18.904;-99.054;2023-07-31T03:00:25;24.60;99.90
61386;DHT22;47256;18.904;-99.054;2023-07-31T03:02:53;24.50;99.90
61386;DHT22;47256;18.904;-99.054;2023-07-31T03:05:21;24.50;99.90
61386;DHT22;47256;18.904;-99.054;2023-07-31T03:07:48;24.50;99.90
61386;DHT22;47256;18.904;-99.054;2023-07-31T03:10:15;24.50;99.90
61386;DHT22;47256;18.904;-99.054;2023-07-31T03:12:44;24.60;99.90
61386;DHT22;47256;18.904;-99.054;2023-07-31T03:15:13;24.60;99.90
61386;DHT22;47256;18.904;-99.054;2023-07-31T03:17:40;24.60;99.90
61386;DHT22;47256;18.904;-99.054;2023-07-31T03:20:07;24.60;99.90
61386;DHT22;47256;18.904;-99.054;2023-07-31T03:22:35;24.60;99.90
61386;DHT22;47256;18.904;-99.054;2023-07-31T03:25:03;24.40;99.90
61386;DHT22;47256;18.904;-99.054;2023-07-31T03:27:30;24.40;99.90
61386;DHT22;47256;18.904;-99.054;2023-07-31T03:29:57;24.30;99.90
61386;DHT22;47256;18.904;-99.054;2023-07-31T03:32:25;24.20;99.90
61386;DHT22;47256;18.904;-99.054;2023-07-31T03:34:53;24.20;99.90
61386;DHT22;47256;18.904;-99.054;2023-07-31T03:37:20;24.20;99.90
61386;DHT22;47256;18.904;-99.054;2023-07-31T03:39:48;24.20;99.90
61386;DHT22;47256;18.904;-99.054;2023-07-31T03:42:17;24.20;99.90
61386;DHT22;47256;18.904;-99.054;2023-07-31T03:44:44;24.20;99.90
61386;DHT22;47256;18.904;-99.054;2023-07-31T03:47:11;24.30;99.90
61386;DHT22;47256;18.904;-99.054;2023-07-31T03:49:42;24.20;99.90
61386;DHT22;47256;18.904;-99.054;2023-07-31T03:52:09;24.20;99.90
61386;DHT22;47256;18.904;-99.054;2023-07-31T03:54:36;24.20;99.90
61386;DHT22;47256;18.904;-99.054;2023-07-31T03:57:03;24.20;99.90
61386;DHT22;47256;18.904;-99.054;2023-07-31T03:59:30;24.20;99.90
61386;DHT22;47256;18.904;-99.054;2023-07-31T04:01:58;24.20;99.90
61386;DHT22;47256;18.904;-99.054;2023-07-31T04:04:25;24.10;99.90
61386;DHT22;47256;18.904;-99.054;2023-07-31T04:06:52;24.10;99.90
61386;DHT22;47256;18.904;-99.054;2023-07-31T04:09:19;24.10;99.90
61386;DHT22;47256;18.904;-99.054;2023-07-31T04:11:47;24.00;99.90
61386;DHT22;47256;18.904;-99.054;2023-07-31T04:14:15;24.00;99.90
61386;DHT22;47256;18.904;-99.054;2023-07-31T04:16:42;24.00;99.90
61386;DHT22;47256;18.904;-99.054;2023-07-31T04:19:09;24.10;99.90
61386;DHT22;47256;18.904;-99.054;2023-07-31T04:21:37;24.10;99.90
61386;DHT22;47256;18.904;-99.054;2023-07-31T04:24:04;24.10;99.90
61386;DHT22;47256;18.904;-99.054;2023-07-31T04:26:32;24.10;99.90
61386;DHT22;47256;18.904;-99.054;2023-07-31T04:28:59;24.10;99.90
61386;DHT22;47256;18.904;-99.054;2023-07-31T04:31:26;24.00;99.90
61386;DHT22;47256;18.904;-99.054;2023-07-31T04:33:53;24.00;99.90
61386;DHT22;47256;18.904;-99.054;2023-07-31T04:36:20;24.00;99.90
61386;DHT22;47256;18.904;-99.054;2023-07-31T04:38:47;24.00;99.90
61386;DHT22;47256;18.904;-99.054;2023-07-31T04:41:16;24.10;99.90
61386;DHT22;47256;18.904;-99.054;2023-07-31T04:43:43;24.20;99.90
61386;DHT22;47256;18.904;-99.054;2023-07-31T04:46:11;24.30;99.90
61386;DHT22;47256;18.904;-99.054;2023-07-31T04:48:38;24.30;99.90
61386;DHT22;47256;18.904;-99.054;2023-07-31T04:51:05;24.30;99.90
61386;DHT22;47256;18.904;-99.054;2023-07-31T04:53:32;24.40;99.90
61386;DHT22;47256;18.904;-99.054;2023-07-31T04:56:00;24.40;99.90
61386;DHT22;47256;18.904;-99.054;2023-07-31T04:58:27;24.40;99.90
61386;DHT22;47256;18.904;-99.054;2023-07-31T05:00:54;24.40;99.90
61386;DHT22;47256;18.904;-99.054;2023-07-31T05:03:21;24.30;99.90
61386;DHT22;47256;18.904;-99.054;2023-07-31T05:05:50;24.20;99.90
61386;DHT22;47256;18.904;-99.054;2023-07-31T05:08:18;24.10;99.90
61386;DHT22;47256;18.904;-99.054;2023-07-31T05:10:45;24.10;99.90
61386;DHT22;47256;18.904;-99.054;2023-07-31T05:13:12;24.10;99.90
61386;DHT22;47256;18.904;-99.054;2023-07-31T05:15:41;24.10;99.90
61386;DHT22;47256;18.904;-99.054;2023-07-31T05:18:08;24.10;99.90
61386;DHT22;47256;18.904;-99.054;2023-07-31T05:20:36;24.10;99.90
61386;DHT22;47256;18.904;-99.054;2023-07-31T05:23:03;24.10;99.90
61386;DHT22;47256;18.904;-99.054;2023-07-31T05:25:30;24.10;99.90
61386;DHT22;47256;18.904;-99.054;2023-07-31T05:27:57;24.10;99.90
61386;DHT22;47256;18.904;-99.054;2023-07-31T05:30:25;24.00;99.90
61386;DHT22;47256;18.904;-99.054;2023-07-31T05:32:52;24.00;99.90
61386;DHT22;47256;18.904;-99.054;2023-07-31T05:35:19;23.90;99.90
61386;DHT22;47256;18.904;-99.054;2023-07-31T05:37:47;23.90;99.90
61386;DHT22;47256;18.904;-99.054;2023-07-31T05:40:14;23.90;99.90
61386;DHT22;47256;18.904;-99.054;2023-07-31T05:42:41;24.00;99.90
61386;DHT22;47256;18.904;-99.054;2023-07-31T05:45:09;23.90;99.90
61386;DHT22;47256;18.904;-99.054;2023-07-31T05:47:36;23.90;99.90
61386;DHT22;47256;18.904;-99.054;2023-07-31T05:50:03;23.90;99.90
61386;DHT22;47256;18.904;-99.054;2023-07-31T05:52:31;23.90;99.90
61386;DHT22;47256;18.904;-99.054;2023-07-31T05:54:59;23.90;99.90
61386;DHT22;47256;18.904;-99.054;2023-07-31T05:57:27;23.90;99.90
61386;DHT22;47256;18.904;-99.054;2023-07-31T05:59:54;23.80;99.90
61386;DHT22;47256;18.904;-99.054;2023-07-31T06:02:21;23.80;99.90
61386;DHT22;47256;18.904;-99.054;2023-07-31T06:04:48;23.80;99.90
61386;DHT22;47256;18.904;-99.054;2023-07-31T06:07:16;23.80;99.90
61386;DHT22;47256;18.904;-99.054;2023-07-31T06:09:43;23.80;99.90
61386;DHT22;47256;18.904;-99.054;2023-07-31T06:12:10;23.80;99.90
61386;DHT22;47256;18.904;-99.054;2023-07-31T06:14:38;23.80;99.90
61386;DHT22;47256;18.904;-99.054;2023-07-31T06:17:05;23.80;99.90
61386;DHT22;47256;18.904;-99.054;2023-07-31T06:19:33;23.80;99.90
61386;DHT22;47256;18.904;-99.054;2023-07-31T06:22:01;23.80;99.90
61386;DHT22;47256;18.904;-99.054;2023-07-31T06:24:30;23.80;99.90
61386;DHT22;47256;18.904;-99.054;2023-07-31T06:26:58;23.80;99.90
61386;DHT22;47256;18.904;-99.054;2023-07-31T06:29:26;23.80;99.90
61386;DHT22;47256;18.904;-99.054;2023-07-31T06:31:53;23.80;99.90
61386;DHT22;47256;18.904;-99.054;2023-07-31T06:34:20;23.70;99.90
61386;DHT22;47256;18.904;-99.054;2023-07-31T06:36:47;23.70;99.90
61386;DHT22;47256;18.904;-99.054;2023-07-31T06:39:15;23.70;99.90
61386;DHT22;47256;18.904;-99.054;2023-07-31T06:41:43;23.70;99.90
61386;DHT22;47256;18.904;-99.054;2023-07-31T06:44:11;23.60;99.90
61386;DHT22;47256;18.904;-99.054;2023-07-31T06:46:38;23.60;99.90
61386;DHT22;47256;18.904;-99.054;2023-07-31T06:49:05;23.50;99.90
61386;DHT22;47256;18.904;-99.054;2023-07-31T06:51:32;23.50;99.90
61386;DHT22;47256;18.904;-99.054;2023-07-31T06:53:59;23.50;99.90
61386;DHT22;47256;18.904;-99.054;2023-07-31T06:56:27;23.50;99.90
61386;DHT22;47256;18.904;-99.054;2023-07-31T06:58:54;23.50;99.90
61386;DHT22;47256;18.904;-99.054;2023-07-31T07:01:22;23.50;99.90
61386;DHT22;47256;18.904;-99.054;2023-07-31T07:03:49;23.50;99.90
61386;DHT22;47256;18.904;-99.054;2023-07-31T07:06:22;23.50;99.90
61386;DHT22;47256;18.904;-99.054;2023-07-31T07:08:49;23.40;99.90
61386;DHT22;47256;18.904;-99.054;2023-07-31T07:11:16;23.40;99.90
61386;DHT22;47256;18.904;-99.054;2023-07-31T07:13:43;23.40;99.90
61386;DHT22;47256;18.904;-99.054;2023-07-31T07:16:12;23.40;99.90
61386;DHT22;47256;18.904;-99.054;2023-07-31T07:18:39;23.40;99.90
61386;DHT22;47256;18.904;-99.054;2023-07-31T07:21:06;23.40;99.90
61386;DHT22;47256;18.904;-99.054;2023-07-31T07:23:33;23.30;99.90
61386;DHT22;47256;18.904;-99.054;2023-07-31T07:26:00;23.40;99.90
61386;DHT22;47256;18.904;-99.054;2023-07-31T07:28:27;23.40;99.90
61386;DHT22;47256;18.904;-99.054;2023-07-31T07:30:55;23.30;99.90
61386;DHT22;47256;18.904;-99.054;2023-07-31T07:33:22;23.40;99.90
61386;DHT22;47256;18.904;-99.054;2023-07-31T07:35:50;23.40;99.90
61386;DHT22;47256;18.904;-99.054;2023-07-31T07:38:17;23.30;99.90
61386;DHT22;47256;18.904;-99.054;2023-07-31T07:40:46;23.10;99.90
61386;DHT22;47256;18.904;-99.054;2023-07-31T07:43:17;23.10;99.90
61386;DHT22;47256;18.904;-99.054;2023-07-31T07:45:44;23.10;99.90
61386;DHT22;47256;18.904;-99.054;2023-07-31T07:48:11;23.10;99.90
61386;DHT22;47256;18.904;-99.054;2023-07-31T07:50:41;23.20;99.90
61386;DHT22;47256;18.904;-99.054;2023-07-31T07:53:08;23.30;99.90
61386;DHT22;47256;18.904;-99.054;2023-07-31T07:55:35;23.30;99.90
61386;DHT22;47256;18.904;-99.054;2023-07-31T07:58:03;23.30;99.90
61386;DHT22;47256;18.904;-99.054;2023-07-31T08:00:30;23.20;99.90
61386;DHT22;47256;18.904;-99.054;2023-07-31T08:02:57;23.20;99.90
61386;DHT22;47256;18.904;-99.054;2023-07-31T08:05:24;23.30;99.90
61386;DHT22;47256;18.904;-99.054;2023-07-31T08:07:52;23.20;99.90
61386;DHT22;47256;18.904;-99.054;2023-07-31T08:10:20;23.20;99.90
61386;DHT22;47256;18.904;-99.054;2023-07-31T08:12:47;23.30;99.90
61386;DHT22;47256;18.904;-99.054;2023-07-31T08:15:15;23.20;99.90
61386;DHT22;47256;18.904;-99.054;2023-07-31T08:17:42;23.20;99.90
61386;DHT22;47256;18.904;-99.054;2023-07-31T08:20:09;23.30;99.90
61386;DHT22;47256;18.904;-99.054;2023-07-31T08:22:37;23.30;99.90
61386;DHT22;47256;18.904;-99.054;2023-07-31T08:25:05;23.30;99.90
61386;DHT22;47256;18.904;-99.054;2023-07-31T08:27:33;23.30;99.90
61386;DHT22;47256;18.904;-99.054;2023-07-31T08:30:00;23.30;99.90
61386;DHT22;47256;18.904;-99.054;2023-07-31T08:32:27;23.30;99.90
61386;DHT22;47256;18.904;-99.054;2023-07-31T08:34:56;23.20;99.90
61386;DHT22;47256;18.904;-99.054;2023-07-31T08:37:25;23.10;99.90
61386;DHT22;47256;18.904;-99.054;2023-07-31T08:39:53;23.10;99.90
61386;DHT22;47256;18.904;-99.054;2023-07-31T08:42:21;23.10;99.90
61386;DHT22;47256;18.904;-99.054;2023-07-31T08:44:50;23.10;99.90
61386;DHT22;47256;18.904;-99.054;2023-07-31T08:47:18;23.00;99.90
61386;DHT22;47256;18.904;-99.054;2023-07-31T08:49:46;23.00;99.90
61386;DHT22;47256;18.904;-99.054;2023-07-31T08:52:15;22.90;99.90
61386;DHT22;47256;18.904;-99.054;2023-07-31T08:54:42;22.90;99.90
61386;DHT22;47256;18.904;-99.054;2023-07-31T08:57:10;22.90;99.90
61386;DHT22;47256;18.904;-99.054;2023-07-31T08:59:38;22.90;99.90
61386;DHT22;47256;18.904;-99.054;2023-07-31T09:02:08;22.90;99.90
61386;DHT22;47256;18.904;-99.054;2023-07-31T09:04:35;22.90;99.90
61386;DHT22;47256;18.904;-99.054;2023-07-31T09:07:06;22.90;99.90
61386;DHT22;47256;18.904;-99.054;2023-07-31T09:09:36;22.90;99.90
61386;DHT22;47256;18.904;-99.054;2023-07-31T09:12:04;22.90;99.90
61386;DHT22;47256;18.904;-99.054;2023-07-31T09:14:32;22.90;99.90
61386;DHT22;47256;18.904;-99.054;2023-07-31T09:17:00;22.90;99.90
61386;DHT22;47256;18.904;-99.054;2023-07-31T09:19:34;22.80;99.90
61386;DHT22;47256;18.904;-99.054;2023-07-31T09:22:04;22.70;99.90
61386;DHT22;47256;18.904;-99.054;2023-07-31T09:24:34;22.60;99.90
61386;DHT22;47256;18.904;-99.054;2023-07-31T09:27:02;22.50;99.90
61386;DHT22;47256;18.904;-99.054;2023-07-31T09:29:29;22.60;99.90
61386;DHT22;47256;18.904;-99.054;2023-07-31T09:31:56;22.60;99.90
61386;DHT22;47256;18.904;-99.054;2023-07-31T09:34:37;22.60;99.90
61386;DHT22;47256;18.904;-99.054;2023-07-31T09:37:08;22.70;99.90
61386;DHT22;47256;18.904;-99.054;2023-07-31T09:39:46;22.60;99.90
61386;DHT22;47256;18.904;-99.054;2023-07-31T09:42:14;22.60;99.90
61386;DHT22;47256;18.904;-99.054;2023-07-31T09:44:51;22.60;99.90
61386;DHT22;47256;18.904;-99.054;2023-07-31T09:47:24;22.60;99.90
61386;DHT22;47256;18.904;-99.054;2023-07-31T09:49:51;22.70;99.90
61386;DHT22;47256;18.904;-99.054;2023-07-31T09:52:19;22.70;99.90
61386;DHT22;47256;18.904;-99.054;2023-07-31T09:54:46;22.70;99.90
61386;DHT22;47256;18.904;-99.054;2023-07-31T09:57:14;22.60;99.90
61386;DHT22;47256;18.904;-99.054;2023-07-31T09:59:46;22.60;99.90
61386;DHT22;47256;18.904;-99.054;2023-07-31T10:02:18;22.60;99.90
61386;DHT22;47256;18.904;-99.054;2023-07-31T10:04:50;22.60;99.90
61386;DHT22;47256;18.904;-99.054;2023-07-31T10:07:18;22.60;99.90
61386;DHT22;47256;18.904;-99.054;2023-07-31T10:09:47;22.50;99.90
61386;DHT22;47256;18.904;-99.054;2023-07-31T10:12:18;22.40;99.90
61386;DHT22;47256;18.904;-99.054;2023-07-31T10:14:46;22.40;99.90
61386;DHT22;47256;18.904;-99.054;2023-07-31T10:17:14;22.40;99.90
61386;DHT22;47256;18.904;-99.054;2023-07-31T10:19:41;22.40;99.90
61386;DHT22;47256;18.904;-99.054;2023-07-31T10:22:09;22.40;99.90
61386;DHT22;47256;18.904;-99.054;2023-07-31T10:24:37;22.40;99.90
61386;DHT22;47256;18.904;-99.054;2023-07-31T10:27:04;22.40;99.90
61386;DHT22;47256;18.904;-99.054;2023-07-31T10:29:32;22.40;99.90
61386;DHT22;47256;18.904;-99.054;2023-07-31T10:32:00;22.40;99.90
61386;DHT22;47256;18.904;-99.054;2023-07-31T10:34:28;22.40;99.90
61386;DHT22;47256;18.904;-99.054;2023-07-31T10:37:24;22.40;99.90
61386;DHT22;47256;18.904;-99.054;2023-07-31T10:42:30;22.20;99.90
61386;DHT22;47256;18.904;-99.054;2023-07-31T10:45:05;22.20;99.90
61386;DHT22;47256;18.904;-99.054;2023-07-31T10:47:43;22.20;99.90
61386;DHT22;47256;18.904;-99.054;2023-07-31T10:50:18;22.20;99.90
61386;DHT22;47256;18.904;-99.054;2023-07-31T10:52:53;22.00;99.90
61386;DHT22;47256;18.904;-99.054;2023-07-31T10:55:40;22.00;99.90
61386;DHT22;47256;18.904;-99.054;2023-07-31T10:58:11;22.00;99.90
61386;DHT22;47256;18.904;-99.054;2023-07-31T11:00:44;22.00;99.90
61386;DHT22;47256;18.904;-99.054;2023-07-31T11:03:15;22.10;99.90
61386;DHT22;47256;18.904;-99.054;2023-07-31T11:06:01;21.90;99.90
61386;DHT22;47256;18.904;-99.054;2023-07-31T11:08:34;21.90;99.90
61386;DHT22;47256;18.904;-99.054;2023-07-31T11:11:09;21.90;99.90
61386;DHT22;47256;18.904;-99.054;2023-07-31T11:13:40;21.80;99.90
61386;DHT22;47256;18.904;-99.054;2023-07-31T11:16:09;21.80;99.90
61386;DHT22;47256;18.904;-99.054;2023-07-31T11:18:40;21.90;99.90
61386;DHT22;47256;18.904;-99.054;2023-07-31T11:21:19;21.90;99.90
61386;DHT22;47256;18.904;-99.054;2023-07-31T11:23:51;21.90;99.90
61386;DHT22;47256;18.904;-99.054;2023-07-31T11:26:19;22.00;99.90
61386;DHT22;47256;18.904;-99.054;2023-07-31T11:28:47;22.00;99.90
61386;DHT22;47256;18.904;-99.054;2023-07-31T11:31:16;22.00;99.90
61386;DHT22;47256;18.904;-99.054;2023-07-31T11:33:43;22.00;99.90
61386;DHT22;47256;18.904;-99.054;2023-07-31T11:36:18;22.00;99.90
61386;DHT22;47256;18.904;-99.054;2023-07-31T11:38:46;22.00;99.90
61386;DHT22;47256;18.904;-99.054;2023-07-31T11:41:15;21.90;99.90
61386;DHT22;47256;18.904;-99.054;2023-07-31T11:43:43;21.90;99.90
61386;DHT22;47256;18.904;-99.054;2023-07-31T11:46:11;21.80;99.90
61386;DHT22;47256;18.904;-99.054;2023-07-31T11:48:39;21.90;99.90
61386;DHT22;47256;18.904;-99.054;2023-07-31T11:51:12;21.90;99.90
61386;DHT22;47256;18.904;-99.054;2023-07-31T11:53:48;21.80;99.90
61386;DHT22;47256;18.904;-99.054;2023-07-31T11:56:20;21.80;99.90
61386;DHT22;47256;18.904;-99.054;2023-07-31T11:58:53;21.80;99.90
61386;DHT22;47256;18.904;-99.054;2023-07-31T12:01:21;21.80;99.90
61386;DHT22;47256;18.904;-99.054;2023-07-31T12:03:50;21.80;99.90
61386;DHT22;47256;18.904;-99.054;2023-07-31T12:06:18;21.90;99.90
61386;DHT22;47256;18.904;-99.054;2023-07-31T12:08:47;21.80;99.90
61386;DHT22;47256;18.904;-99.054;2023-07-31T12:11:15;21.80;99.90
61386;DHT22;47256;18.904;-99.054;2023-07-31T12:13:44;21.80;99.90
61386;DHT22;47256;18.904;-99.054;2023-07-31T12:16:11;21.80;99.90
61386;DHT22;47256;18.904;-99.054;2023-07-31T12:18:40;21.80;99.90
61386;DHT22;47256;18.904;-99.054;2023-07-31T12:21:08;21.80;99.90
61386;DHT22;47256;18.904;-99.054;2023-07-31T12:23:38;21.70;99.90
61386;DHT22;47256;18.904;-99.054;2023-07-31T12:28:54;21.70;99.90
61386;DHT22;47256;18.904;-99.054;2023-07-31T12:31:22;21.70;99.90
61386;DHT22;47256;18.904;-99.054;2023-07-31T12:33:51;21.70;99.90
61386;DHT22;47256;18.904;-99.054;2023-07-31T12:36:24;21.70;99.90
61386;DHT22;47256;18.904;-99.054;2023-07-31T12:38:52;21.70;99.90
61386;DHT22;47256;18.904;-99.054;2023-07-31T12:41:20;21.70;99.90
61386;DHT22;47256;18.904;-99.054;2023-07-31T12:43:47;21.60;99.90
61386;DHT22;47256;18.904;-99.054;2023-07-31T12:46:14;21.70;99.90
61386;DHT22;47256;18.904;-99.054;2023-07-31T12:48:42;21.60;99.90
61386;DHT22;47256;18.904;-99.054;2023-07-31T12:51:10;21.60;99.90
61386;DHT22;47256;18.904;-99.054;2023-07-31T12:53:38;21.60;99.90
61386;DHT22;47256;18.904;-99.054;2023-07-31T12:56:05;21.60;99.90
61386;DHT22;47256;18.904;-99.054;2023-07-31T12:58:32;21.60;99.90
61386;DHT22;47256;18.904;-99.054;2023-07-31T13:00:59;21.60;99.90
61386;DHT22;47256;18.904;-99.054;2023-07-31T13:03:28;21.70;99.90
61386;DHT22;47256;18.904;-99.054;2023-07-31T13:05:56;21.60;99.90
61386;DHT22;47256;18.904;-99.054;2023-07-31T13:08:25;21.70;99.90
61386;DHT22;47256;18.904;-99.054;2023-07-31T13:10:52;21.70;99.90
61386;DHT22;47256;18.904;-99.054;2023-07-31T13:13:20;21.80;99.90
61386;DHT22;47256;18.904;-99.054;2023-07-31T13:15:47;21.80;99.90
61386;DHT22;47256;18.904;-99.054;2023-07-31T13:18:15;21.80;99.90
61386;DHT22;47256;18.904;-99.054;2023-07-31T13:20:42;21.80;99.90
61386;DHT22;47256;18.904;-99.054;2023-07-31T13:23:09;21.90;99.90
61386;DHT22;47256;18.904;-99.054;2023-07-31T13:25:36;22.00;99.90
61386;DHT22;47256;18.904;-99.054;2023-07-31T13:28:05;22.00;99.90
61386;DHT22;47256;18.904;-99.054;2023-07-31T13:30:32;22.00;99.90
61386;DHT22;47256;18.904;-99.054;2023-07-31T13:32:59;22.00;99.90
61386;DHT22;47256;18.904;-99.054;2023-07-31T13:35:26;22.00;99.90
61386;DHT22;47256;18.904;-99.054;2023-07-31T13:37:54;22.10;99.90
61386;DHT22;47256;18.904;-99.054;2023-07-31T13:40:22;22.20;99.90
61386;DHT22;47256;18.904;-99.054;2023-07-31T13:42:49;22.20;99.90
61386;DHT22;47256;18.904;-99.054;2023-07-31T13:45:16;22.20;99.90
61386;DHT22;47256;18.904;-99.054;2023-07-31T13:47:44;22.30;99.90
61386;DHT22;47256;18.904;-99.054;2023-07-31T13:50:11;22.40;99.90
61386;DHT22;47256;18.904;-99.054;2023-07-31T13:52:38;22.40;99.90
61386;DHT22;47256;18.904;-99.054;2023-07-31T13:55:05;22.50;99.90
61386;DHT22;47256;18.904;-99.054;2023-07-31T13:57:33;22.60;99.90
61386;DHT22;47256;18.904;-99.054;2023-07-31T14:00:00;22.60;99.90
61386;DHT22;47256;18.904;-99.054;2023-07-31T14:02:28;22.70;99.90
61386;DHT22;47256;18.904;-99.054;2023-07-31T14:04:55;22.70;99.90
61386;DHT22;47256;18.904;-99.054;2023-07-31T14:07:23;22.80;99.90
61386;DHT22;47256;18.904;-99.054;2023-07-31T14:09:50;22.80;99.90
61386;DHT22;47256;18.904;-99.054;2023-07-31T14:12:17;22.90;99.90
61386;DHT22;47256;18.904;-99.054;2023-07-31T14:14:44;22.90;99.90
61386;DHT22;47256;18.904;-99.054;2023-07-31T14:17:11;22.90;99.90
61386;DHT22;47256;18.904;-99.054;2023-07-31T14:19:38;23.00;99.90
61386;DHT22;47256;18.904;-99.054;2023-07-31T14:22:05;23.10;99.90
61386;DHT22;47256;18.904;-99.054;2023-07-31T14:24:33;23.30;99.90
61386;DHT22;47256;18.904;-99.054;2023-07-31T14:27:01;23.30;99.90
61386;DHT22;47256;18.904;-99.054;2023-07-31T14:29:28;23.40;99.90
61386;DHT22;47256;18.904;-99.054;2023-07-31T14:31:55;23.40;99.90
61386;DHT22;47256;18.904;-99.054;2023-07-31T14:34:22;23.50;99.90
61386;DHT22;47256;18.904;-99.054;2023-07-31T14:36:50;23.50;99.90
61386;DHT22;47256;18.904;-99.054;2023-07-31T14:39:17;23.60;99.90
61386;DHT22;47256;18.904;-99.054;2023-07-31T14:41:45;23.60;99.90
61386;DHT22;47256;18.904;-99.054;2023-07-31T14:44:12;23.70;99.90
61386;DHT22;47256;18.904;-99.054;2023-07-31T14:46:40;23.80;99.90
61386;DHT22;47256;18.904;-99.054;2023-07-31T14:49:07;23.80;99.90
61386;DHT22;47256;18.904;-99.054;2023-07-31T14:51:34;23.90;99.90
61386;DHT22;47256;18.904;-99.054;2023-07-31T14:54:01;23.90;99.90
61386;DHT22;47256;18.904;-99.054;2023-07-31T14:56:29;24.00;99.90
61386;DHT22;47256;18.904;-99.054;2023-07-31T14:58:56;24.10;99.90
61386;DHT22;47256;18.904;-99.054;2023-07-31T15:01:23;24.30;99.90
61386;DHT22;47256;18.904;-99.054;2023-07-31T15:03:50;24.40;99.90
61386;DHT22;47256;18.904;-99.054;2023-07-31T15:06:18;24.40;99.90
61386;DHT22;47256;18.904;-99.054;2023-07-31T15:08:45;24.40;99.90
61386;DHT22;47256;18.904;-99.054;2023-07-31T15:11:13;24.50;99.90
61386;DHT22;47256;18.904;-99.054;2023-07-31T15:13:42;24.50;99.90
61386;DHT22;47256;18.904;-99.054;2023-07-31T15:16:10;24.60;99.90
61386;DHT22;47256;18.904;-99.054;2023-07-31T15:18:37;24.70;99.90